sensor_id;sensor_type;location;lat;lon;timestamp;P1;durP1;ratioP1;P2;durP2;ratioP2
13487;SDS011;6816;48.506;9.050;2023-08-12T00:00:18;5.03;;;3.05;;
13487;SDS011;6816;48.506;9.050;2023-08-12T00:03:19;5.20;;;3.28;;
13487;SDS011;6816;48.506;9.050;2023-08-12T00:06:20;4.07;;;3.35;;
13487;SDS011;6816;48.506;9.050;2023-08-12T00:09:21;4.30;;;2.90;;
13487;SDS011;6816;48.506;9.050;2023-08-12T00:12:21;3.53;;;3.22;;
13487;SDS011;6816;48.506;9.050;2023-08-12T00:15:22;3.35;;;2.80;;
13487;SDS011;6816;48.506;9.050;2023-08-12T00:18:23;3.60;;;3.30;;
13487;SDS011;6816;48.506;9.050;2023-08-12T00:21:25;3.72;;;3.42;;
13487;SDS011;6816;48.506;9.050;2023-08-12T00:24:25;4.53;;;3.00;;
13487;SDS011;6816;48.506;9.050;2023-08-12T00:27:26;3.40;;;3.10;;
13487;SDS011;6816;48.506;9.050;2023-08-12T00:30:26;3.80;;;3.50;;
13487;SDS011;6816;48.506;9.050;2023-08-12T00:33:27;3.45;;;3.15;;
13487;SDS011;6816;48.506;9.050;2023-08-12T00:36:28;4.22;;;3.30;;
13487;SDS011;6816;48.506;9.050;2023-08-12T00:39:28;3.47;;;3.00;;
13487;SDS011;6816;48.506;9.050;2023-08-12T00:42:29;4.15;;;3.45;;
13487;SDS011;6816;48.506;9.050;2023-08-12T00:45:29;3.00;;;2.70;;
13487;SDS011;6816;48.506;9.050;2023-08-12T00:48:30;3.58;;;3.10;;
13487;SDS011;6816;48.506;9.050;2023-08-12T00:51:31;3.40;;;3.10;;
13487;SDS011;6816;48.506;9.050;2023-08-12T00:54:32;3.67;;;3.13;;
13487;SDS011;6816;48.506;9.050;2023-08-12T00:57:33;3.20;;;2.92;;
13487;SDS011;6816;48.506;9.050;2023-08-12T01:00:34;4.10;;;3.80;;
13487;SDS011;6816;48.506;9.050;2023-08-12T01:03:34;3.67;;;3.33;;
13487;SDS011;6816;48.506;9.050;2023-08-12T01:06:35;5.75;;;3.60;;
13487;SDS011;6816;48.506;9.050;2023-08-12T01:09:39;4.40;;;3.10;;
13487;SDS011;6816;48.506;9.050;2023-08-12T01:12:41;5.78;;;3.22;;
13487;SDS011;6816;48.506;9.050;2023-08-12T01:15:55;3.88;;;3.17;;
13487;SDS011;6816;48.506;9.050;2023-08-12T01:19:01;4.00;;;3.58;;
13487;SDS011;6816;48.506;9.050;2023-08-12T01:22:06;3.70;;;3.40;;
13487;SDS011;6816;48.506;9.050;2023-08-12T01:25:09;3.40;;;3.10;;
13487;SDS011;6816;48.506;9.050;2023-08-12T01:28:09;5.28;;;3.50;;
13487;SDS011;6816;48.506;9.050;2023-08-12T01:37:50;4.00;;;2.97;;
13487;SDS011;6816;48.506;9.050;2023-08-12T01:40:53;4.00;;;3.60;;
13487;SDS011;6816;48.506;9.050;2023-08-12T01:43:54;3.92;;;3.63;;
13487;SDS011;6816;48.506;9.050;2023-08-12T01:46:55;4.10;;;3.70;;
13487;SDS011;6816;48.506;9.050;2023-08-12T01:49:55;5.57;;;3.88;;
13487;SDS011;6816;48.506;9.050;2023-08-12T01:52:56;4.15;;;3.85;;
13487;SDS011;6816;48.506;9.050;2023-08-12T01:55:57;4.40;;;3.88;;
13487;SDS011;6816;48.506;9.050;2023-08-12T01:58:58;4.25;;;3.85;;
13487;SDS011;6816;48.506;9.050;2023-08-12T02:01:59;5.18;;;4.68;;
13487;SDS011;6816;48.506;9.050;2023-08-12T02:04:59;4.80;;;4.28;;
13487;SDS011;6816;48.506;9.050;2023-08-12T02:08:00;4.30;;;4.00;;
13487;SDS011;6816;48.506;9.050;2023-08-12T02:11:00;4.60;;;4.03;;
13487;SDS011;6816;48.506;9.050;2023-08-12T02:14:01;4.22;;;3.42;;
13487;SDS011;6816;48.506;9.050;2023-08-12T02:17:02;5.07;;;3.88;;
13487;SDS011;6816;48.506;9.050;2023-08-12T02:20:05;4.50;;;4.10;;
13487;SDS011;6816;48.506;9.050;2023-08-12T02:23:07;4.60;;;4.20;;
13487;SDS011;6816;48.506;9.050;2023-08-12T02:26:07;5.07;;;3.45;;
13487;SDS011;6816;48.506;9.050;2023-08-12T02:29:08;4.53;;;4.03;;
13487;SDS011;6816;48.506;9.050;2023-08-12T02:32:09;4.82;;;3.88;;
13487;SDS011;6816;48.506;9.050;2023-08-12T02:35:09;4.15;;;3.80;;
13487;SDS011;6816;48.506;9.050;2023-08-12T02:38:10;4.22;;;3.92;;
13487;SDS011;6816;48.506;9.050;2023-08-12T02:41:11;4.10;;;3.80;;
13487;SDS011;6816;48.506;9.050;2023-08-12T02:44:11;4.28;;;3.88;;
13487;SDS011;6816;48.506;9.050;2023-08-12T02:47:12;5.40;;;4.10;;
13487;SDS011;6816;48.506;9.050;2023-08-12T02:50:12;4.25;;;3.85;;
13487;SDS011;6816;48.506;9.050;2023-08-12T02:53:14;4.32;;;3.78;;
13487;SDS011;6816;48.506;9.050;2023-08-12T02:56:15;5.80;;;4.05;;
13487;SDS011;6816;48.506;9.050;2023-08-12T02:59:16;4.22;;;3.75;;
13487;SDS011;6816;48.506;9.050;2023-08-12T03:02:16;5.05;;;4.10;;
13487;SDS011;6816;48.506;9.050;2023-08-12T03:05:17;4.53;;;4.13;;
13487;SDS011;6816;48.506;9.050;2023-08-12T03:08:17;4.45;;;4.05;;
13487;SDS011;6816;48.506;9.050;2023-08-12T03:11:18;4.15;;;3.75;;
13487;SDS011;6816;48.506;9.050;2023-08-12T03:14:19;4.28;;;3.85;;
13487;SDS011;6816;48.506;9.050;2023-08-12T03:17:19;4.50;;;4.10;;
13487;SDS011;6816;48.506;9.050;2023-08-12T03:20:20;4.18;;;3.80;;
13487;SDS011;6816;48.506;9.050;2023-08-12T03:23:21;4.38;;;3.97;;
13487;SDS011;6816;48.506;9.050;2023-08-12T03:26:21;4.53;;;4.13;;
13487;SDS011;6816;48.506;9.050;2023-08-12T03:29:22;4.45;;;3.80;;
13487;SDS011;6816;48.506;9.050;2023-08-12T03:32:24;5.35;;;3.72;;
13487;SDS011;6816;48.506;9.050;2023-08-12T03:35:25;7.72;;;4.00;;
13487;SDS011;6816;48.506;9.050;2023-08-12T03:38:26;4.00;;;3.70;;
13487;SDS011;6816;48.506;9.050;2023-08-12T03:41:26;4.05;;;3.75;;
13487;SDS011;6816;48.506;9.050;2023-08-12T03:44:27;4.63;;;4.20;;
13487;SDS011;6816;48.506;9.050;2023-08-12T03:47:27;4.28;;;3.88;;
13487;SDS011;6816;48.506;9.050;2023-08-12T03:50:28;5.75;;;3.95;;
13487;SDS011;6816;48.506;9.050;2023-08-12T03:53:28;4.68;;;4.28;;
13487;SDS011;6816;48.506;9.050;2023-08-12T03:56:29;4.50;;;4.15;;
13487;SDS011;6816;48.506;9.050;2023-08-12T03:59:30;4.45;;;4.05;;
13487;SDS011;6816;48.506;9.050;2023-08-12T04:02:31;5.10;;;4.20;;
13487;SDS011;6816;48.506;9.050;2023-08-12T04:05:32;4.93;;;4.47;;
13487;SDS011;6816;48.506;9.050;2023-08-12T04:08:32;4.72;;;4.30;;
13487;SDS011;6816;48.506;9.050;2023-08-12T04:11:34;4.70;;;4.18;;
13487;SDS011;6816;48.506;9.050;2023-08-12T04:14:34;4.43;;;4.05;;
13487;SDS011;6816;48.506;9.050;2023-08-12T04:17:35;4.53;;;4.13;;
13487;SDS011;6816;48.506;9.050;2023-08-12T04:20:36;4.55;;;4.15;;
13487;SDS011;6816;48.506;9.050;2023-08-12T04:23:38;4.47;;;4.07;;
13487;SDS011;6816;48.506;9.050;2023-08-12T04:26:38;4.65;;;4.25;;
13487;SDS011;6816;48.506;9.050;2023-08-12T04:29:39;5.15;;;4.50;;
13487;SDS011;6816;48.506;9.050;2023-08-12T04:32:40;4.35;;;3.85;;
13487;SDS011;6816;48.506;9.050;2023-08-12T04:35:41;4.40;;;4.03;;
13487;SDS011;6816;48.506;9.050;2023-08-12T04:38:41;4.90;;;4.28;;
13487;SDS011;6816;48.506;9.050;2023-08-12T04:41:42;4.50;;;4.10;;
13487;SDS011;6816;48.506;9.050;2023-08-12T04:44:43;4.22;;;3.80;;
13487;SDS011;6816;48.506;9.050;2023-08-12T04:47:43;4.30;;;3.90;;
13487;SDS011;6816;48.506;9.050;2023-08-12T04:50:44;3.90;;;3.60;;
13487;SDS011;6816;48.506;9.050;2023-08-12T04:53:44;4.63;;;4.22;;
13487;SDS011;6816;48.506;9.050;2023-08-12T04:56:45;5.03;;;3.80;;
13487;SDS011;6816;48.506;9.050;2023-08-12T04:59:46;4.10;;;3.78;;
13487;SDS011;6816;48.506;9.050;2023-08-12T05:02:46;3.83;;;3.50;;
13487;SDS011;6816;48.506;9.050;2023-08-12T05:05:50;4.47;;;4.07;;
13487;SDS011;6816;48.506;9.050;2023-08-12T05:08:51;4.00;;;3.58;;
13487;SDS011;6816;48.506;9.050;2023-08-12T05:11:52;3.58;;;3.30;;
13487;SDS011;6816;48.506;9.050;2023-08-12T05:14:53;4.40;;;4.00;;
13487;SDS011;6816;48.506;9.050;2023-08-12T05:17:53;4.63;;;3.90;;
13487;SDS011;6816;48.506;9.050;2023-08-12T05:20:54;4.20;;;3.80;;
13487;SDS011;6816;48.506;9.050;2023-08-12T05:23:55;4.00;;;3.60;;
13487;SDS011;6816;48.506;9.050;2023-08-12T05:26:55;5.68;;;4.32;;
13487;SDS011;6816;48.506;9.050;2023-08-12T05:29:56;4.07;;;3.70;;
13487;SDS011;6816;48.506;9.050;2023-08-12T05:32:56;4.63;;;3.90;;
13487;SDS011;6816;48.506;9.050;2023-08-12T05:35:57;4.78;;;4.38;;
13487;SDS011;6816;48.506;9.050;2023-08-12T05:38:58;4.47;;;4.07;;
13487;SDS011;6816;48.506;9.050;2023-08-12T05:41:59;5.03;;;4.50;;
13487;SDS011;6816;48.506;9.050;2023-08-12T05:44:59;4.72;;;4.32;;
13487;SDS011;6816;48.506;9.050;2023-08-12T05:48:00;4.75;;;4.35;;
13487;SDS011;6816;48.506;9.050;2023-08-12T05:51:00;4.45;;;4.07;;
13487;SDS011;6816;48.506;9.050;2023-08-12T05:54:01;5.85;;;5.20;;
13487;SDS011;6816;48.506;9.050;2023-08-12T05:57:02;4.78;;;4.28;;
13487;SDS011;6816;48.506;9.050;2023-08-12T06:00:03;5.00;;;4.50;;
13487;SDS011;6816;48.506;9.050;2023-08-12T06:03:04;4.82;;;4.35;;
13487;SDS011;6816;48.506;9.050;2023-08-12T06:06:04;6.22;;;4.35;;
13487;SDS011;6816;48.506;9.050;2023-08-12T06:09:05;4.40;;;4.00;;
13487;SDS011;6816;48.506;9.050;2023-08-12T06:12:06;6.18;;;4.03;;
13487;SDS011;6816;48.506;9.050;2023-08-12T06:15:06;5.60;;;4.88;;
13487;SDS011;6816;48.506;9.050;2023-08-12T06:18:07;5.40;;;4.07;;
13487;SDS011;6816;48.506;9.050;2023-08-12T06:21:08;4.57;;;4.13;;
13487;SDS011;6816;48.506;9.050;2023-08-12T06:24:08;4.35;;;4.05;;
13487;SDS011;6816;48.506;9.050;2023-08-12T06:27:09;6.70;;;4.10;;
13487;SDS011;6816;48.506;9.050;2023-08-12T06:30:10;5.13;;;4.72;;
13487;SDS011;6816;48.506;9.050;2023-08-12T06:33:11;4.35;;;3.95;;
13487;SDS011;6816;48.506;9.050;2023-08-12T06:36:12;4.53;;;4.13;;
13487;SDS011;6816;48.506;9.050;2023-08-12T06:39:12;4.53;;;3.85;;
13487;SDS011;6816;48.506;9.050;2023-08-12T06:42:13;4.75;;;4.28;;
13487;SDS011;6816;48.506;9.050;2023-08-12T06:45:14;5.03;;;4.53;;
13487;SDS011;6816;48.506;9.050;2023-08-12T06:48:14;4.05;;;3.55;;
13487;SDS011;6816;48.506;9.050;2023-08-12T06:51:15;4.22;;;3.85;;
13487;SDS011;6816;48.506;9.050;2023-08-12T06:54:16;4.75;;;4.30;;
13487;SDS011;6816;48.506;9.050;2023-08-12T06:57:16;4.53;;;4.13;;
13487;SDS011;6816;48.506;9.050;2023-08-12T07:00:17;4.95;;;4.03;;
13487;SDS011;6816;48.506;9.050;2023-08-12T07:03:17;4.82;;;4.07;;
13487;SDS011;6816;48.506;9.050;2023-08-12T07:06:18;4.47;;;4.07;;
13487;SDS011;6816;48.506;9.050;2023-08-12T07:09:19;4.90;;;3.88;;
13487;SDS011;6816;48.506;9.050;2023-08-12T07:12:19;9.98;;;4.60;;
13487;SDS011;6816;48.506;9.050;2023-08-12T07:15:20;5.60;;;4.03;;
13487;SDS011;6816;48.506;9.050;2023-08-12T07:18:20;6.75;;;4.40;;
13487;SDS011;6816;48.506;9.050;2023-08-12T07:21:23;4.32;;;4.03;;
13487;SDS011;6816;48.506;9.050;2023-08-12T07:24:23;4.43;;;4.03;;
13487;SDS011;6816;48.506;9.050;2023-08-12T07:27:24;4.20;;;3.90;;
13487;SDS011;6816;48.506;9.050;2023-08-12T07:30:24;4.18;;;3.72;;
13487;SDS011;6816;48.506;9.050;2023-08-12T07:33:25;4.32;;;4.00;;
13487;SDS011;6816;48.506;9.050;2023-08-12T07:36:25;4.38;;;3.97;;
13487;SDS011;6816;48.506;9.050;2023-08-12T07:39:26;3.60;;;3.30;;
13487;SDS011;6816;48.506;9.050;2023-08-12T07:42:26;4.70;;;4.30;;
13487;SDS011;6816;48.506;9.050;2023-08-12T07:45:27;4.30;;;3.97;;
13487;SDS011;6816;48.506;9.050;2023-08-12T07:48:28;5.45;;;4.15;;
13487;SDS011;6816;48.506;9.050;2023-08-12T07:51:28;4.30;;;3.92;;
13487;SDS011;6816;48.506;9.050;2023-08-12T07:54:29;3.50;;;3.28;;
13487;SDS011;6816;48.506;9.050;2023-08-12T07:57:29;3.95;;;3.65;;
13487;SDS011;6816;48.506;9.050;2023-08-12T08:00:30;3.95;;;3.65;;
13487;SDS011;6816;48.506;9.050;2023-08-12T08:03:32;4.50;;;4.13;;
13487;SDS011;6816;48.506;9.050;2023-08-12T08:06:32;4.10;;;3.80;;
13487;SDS011;6816;48.506;9.050;2023-08-12T08:09:33;3.00;;;2.80;;
13487;SDS011;6816;48.506;9.050;2023-08-12T08:12:33;3.65;;;3.45;;
13487;SDS011;6816;48.506;9.050;2023-08-12T08:15:34;3.55;;;3.33;;
13487;SDS011;6816;48.506;9.050;2023-08-12T08:18:35;3.88;;;3.53;;
13487;SDS011;6816;48.506;9.050;2023-08-12T08:21:35;3.47;;;3.22;;
13487;SDS011;6816;48.506;9.050;2023-08-12T08:24:36;3.90;;;3.60;;
13487;SDS011;6816;48.506;9.050;2023-08-12T08:27:37;4.45;;;3.72;;
13487;SDS011;6816;48.506;9.050;2023-08-12T08:30:38;3.90;;;3.60;;
13487;SDS011;6816;48.506;9.050;2023-08-12T08:33:39;4.28;;;3.88;;
13487;SDS011;6816;48.506;9.050;2023-08-12T08:36:39;3.85;;;3.55;;
13487;SDS011;6816;48.506;9.050;2023-08-12T08:39:40;3.80;;;3.38;;
13487;SDS011;6816;48.506;9.050;2023-08-12T08:42:41;3.47;;;3.28;;
13487;SDS011;6816;48.506;9.050;2023-08-12T08:45:44;4.05;;;3.50;;
13487;SDS011;6816;48.506;9.050;2023-08-12T08:48:45;3.83;;;3.53;;
13487;SDS011;6816;48.506;9.050;2023-08-12T08:51:48;3.67;;;3.38;;
13487;SDS011;6816;48.506;9.050;2023-08-12T08:54:50;3.42;;;3.13;;
13487;SDS011;6816;48.506;9.050;2023-08-12T08:57:51;3.65;;;3.35;;
13487;SDS011;6816;48.506;9.050;2023-08-12T09:00:52;3.10;;;2.90;;
13487;SDS011;6816;48.506;9.050;2023-08-12T09:03:53;3.55;;;3.25;;
13487;SDS011;6816;48.506;9.050;2023-08-12T09:06:54;3.22;;;2.92;;
13487;SDS011;6816;48.506;9.050;2023-08-12T09:09:56;3.20;;;2.90;;
13487;SDS011;6816;48.506;9.050;2023-08-12T09:13:00;3.22;;;3.00;;
13487;SDS011;6816;48.506;9.050;2023-08-12T09:16:02;3.35;;;3.00;;
13487;SDS011;6816;48.506;9.050;2023-08-12T09:19:03;3.28;;;3.08;;
13487;SDS011;6816;48.506;9.050;2023-08-12T09:22:03;4.03;;;3.03;;
13487;SDS011;6816;48.506;9.050;2023-08-12T09:25:05;3.67;;;3.35;;
13487;SDS011;6816;48.506;9.050;2023-08-12T09:28:07;3.78;;;3.47;;
13487;SDS011;6816;48.506;9.050;2023-08-12T09:31:23;3.28;;;3.08;;
13487;SDS011;6816;48.506;9.050;2023-08-12T09:34:25;3.38;;;3.08;;
13487;SDS011;6816;48.506;9.050;2023-08-12T09:37:25;4.95;;;3.75;;
13487;SDS011;6816;48.506;9.050;2023-08-12T09:40:26;3.83;;;3.28;;
13487;SDS011;6816;48.506;9.050;2023-08-12T09:43:27;3.60;;;3.30;;
13487;SDS011;6816;48.506;9.050;2023-08-12T09:46:28;3.60;;;3.30;;
13487;SDS011;6816;48.506;9.050;2023-08-12T09:49:29;3.78;;;3.20;;
13487;SDS011;6816;48.506;9.050;2023-08-12T09:52:29;3.10;;;2.90;;
13487;SDS011;6816;48.506;9.050;2023-08-12T09:55:30;3.33;;;3.08;;
13487;SDS011;6816;48.506;9.050;2023-08-12T09:58:35;2.88;;;2.67;;
13487;SDS011;6816;48.506;9.050;2023-08-12T10:01:37;3.10;;;2.80;;
13487;SDS011;6816;48.506;9.050;2023-08-12T10:04:41;3.58;;;3.28;;
13487;SDS011;6816;48.506;9.050;2023-08-12T10:07:45;3.72;;;3.42;;
13487;SDS011;6816;48.506;9.050;2023-08-12T10:10:46;3.20;;;3.00;;
13487;SDS011;6816;48.506;9.050;2023-08-12T10:13:47;3.38;;;3.10;;
13487;SDS011;6816;48.506;9.050;2023-08-12T10:16:48;3.55;;;3.25;;
13487;SDS011;6816;48.506;9.050;2023-08-12T10:19:49;3.80;;;3.20;;
13487;SDS011;6816;48.506;9.050;2023-08-12T10:22:55;4.13;;;3.25;;
13487;SDS011;6816;48.506;9.050;2023-08-12T10:25:56;3.30;;;3.10;;
13487;SDS011;6816;48.506;9.050;2023-08-12T10:29:00;3.42;;;3.13;;
13487;SDS011;6816;48.506;9.050;2023-08-12T10:32:01;4.90;;;3.40;;
13487;SDS011;6816;48.506;9.050;2023-08-12T10:35:02;3.75;;;3.45;;
13487;SDS011;6816;48.506;9.050;2023-08-12T10:38:05;3.47;;;3.17;;
13487;SDS011;6816;48.506;9.050;2023-08-12T10:41:19;3.60;;;3.30;;
13487;SDS011;6816;48.506;9.050;2023-08-12T10:45:06;2.97;;;2.78;;
13487;SDS011;6816;48.506;9.050;2023-08-12T10:48:11;2.75;;;2.55;;
13487;SDS011;6816;48.506;9.050;2023-08-12T10:51:15;2.85;;;2.47;;
13487;SDS011;6816;48.506;9.050;2023-08-12T10:54:26;2.60;;;2.40;;
13487;SDS011;6816;48.506;9.050;2023-08-12T10:57:36;2.33;;;2.17;;
13487;SDS011;6816;48.506;9.050;2023-08-12T11:00:38;1.92;;;1.83;;
13487;SDS011;6816;48.506;9.050;2023-08-12T11:03:44;2.13;;;2.03;;
13487;SDS011;6816;48.506;9.050;2023-08-12T11:06:46;1.70;;;1.60;;
13487;SDS011;6816;48.506;9.050;2023-08-12T11:09:50;2.65;;;1.90;;
13487;SDS011;6816;48.506;9.050;2023-08-12T11:16:09;3.10;;;1.88;;
13487;SDS011;6816;48.506;9.050;2023-08-12T11:19:09;2.28;;;2.00;;
13487;SDS011;6816;48.506;9.050;2023-08-12T11:22:10;1.85;;;1.73;;
13487;SDS011;6816;48.506;9.050;2023-08-12T11:25:13;2.10;;;1.90;;
13487;SDS011;6816;48.506;9.050;2023-08-12T11:28:14;2.85;;;1.95;;
13487;SDS011;6816;48.506;9.050;2023-08-12T11:31:15;2.15;;;1.95;;
13487;SDS011;6816;48.506;9.050;2023-08-12T11:34:18;2.10;;;1.90;;
13487;SDS011;6816;48.506;9.050;2023-08-12T11:37:19;5.15;;;1.83;;
13487;SDS011;6816;48.506;9.050;2023-08-12T11:40:20;2.25;;;1.83;;
13487;SDS011;6816;48.506;9.050;2023-08-12T11:43:21;2.38;;;2.10;;
13487;SDS011;6816;48.506;9.050;2023-08-12T11:46:22;2.15;;;1.95;;
13487;SDS011;6816;48.506;9.050;2023-08-12T11:49:24;1.90;;;1.80;;
13487;SDS011;6816;48.506;9.050;2023-08-12T11:52:25;2.00;;;1.70;;
13487;SDS011;6816;48.506;9.050;2023-08-12T11:55:26;1.90;;;1.65;;
13487;SDS011;6816;48.506;9.050;2023-08-12T11:58:26;2.00;;;1.80;;
13487;SDS011;6816;48.506;9.050;2023-08-12T12:01:36;1.90;;;1.80;;
13487;SDS011;6816;48.506;9.050;2023-08-12T12:04:36;1.92;;;1.75;;
13487;SDS011;6816;48.506;9.050;2023-08-12T12:07:37;1.83;;;1.70;;
13487;SDS011;6816;48.506;9.050;2023-08-12T12:10:38;1.73;;;1.63;;
13487;SDS011;6816;48.506;9.050;2023-08-12T12:13:39;4.15;;;1.90;;
13487;SDS011;6816;48.506;9.050;2023-08-12T12:16:44;2.13;;;1.77;;
13487;SDS011;6816;48.506;9.050;2023-08-12T12:19:45;1.98;;;1.77;;
13487;SDS011;6816;48.506;9.050;2023-08-12T12:22:46;1.90;;;1.77;;
13487;SDS011;6816;48.506;9.050;2023-08-12T12:25:47;2.72;;;1.83;;
13487;SDS011;6816;48.506;9.050;2023-08-12T12:28:48;1.92;;;1.77;;
13487;SDS011;6816;48.506;9.050;2023-08-12T12:31:48;2.10;;;1.90;;
13487;SDS011;6816;48.506;9.050;2023-08-12T12:34:49;2.85;;;2.13;;
13487;SDS011;6816;48.506;9.050;2023-08-12T12:37:51;1.98;;;1.80;;
13487;SDS011;6816;48.506;9.050;2023-08-12T12:40:51;3.17;;;1.88;;
13487;SDS011;6816;48.506;9.050;2023-08-12T12:43:52;5.72;;;3.25;;
13487;SDS011;6816;48.506;9.050;2023-08-12T12:46:52;4.10;;;2.67;;
13487;SDS011;6816;48.506;9.050;2023-08-12T12:49:53;3.75;;;2.20;;
13487;SDS011;6816;48.506;9.050;2023-08-12T12:52:54;3.22;;;1.80;;
13487;SDS011;6816;48.506;9.050;2023-08-12T12:55:56;4.80;;;1.52;;
13487;SDS011;6816;48.506;9.050;2023-08-12T12:58:57;2.38;;;1.75;;
13487;SDS011;6816;48.506;9.050;2023-08-12T13:01:58;2.03;;;1.83;;
13487;SDS011;6816;48.506;9.050;2023-08-12T13:04:58;2.47;;;1.73;;
13487;SDS011;6816;48.506;9.050;2023-08-12T13:07:59;3.38;;;1.83;;
13487;SDS011;6816;48.506;9.050;2023-08-12T13:11:00;2.90;;;1.83;;
13487;SDS011;6816;48.506;9.050;2023-08-12T13:14:01;4.28;;;2.10;;
13487;SDS011;6816;48.506;9.050;2023-08-12T13:17:04;2.85;;;1.98;;
13487;SDS011;6816;48.506;9.050;2023-08-12T13:20:05;3.25;;;1.83;;
13487;SDS011;6816;48.506;9.050;2023-08-12T13:23:06;3.83;;;2.05;;
13487;SDS011;6816;48.506;9.050;2023-08-12T13:26:07;2.75;;;2.00;;
13487;SDS011;6816;48.506;9.050;2023-08-12T13:29:07;1.90;;;1.70;;
13487;SDS011;6816;48.506;9.050;2023-08-12T13:32:08;1.92;;;1.60;;
13487;SDS011;6816;48.506;9.050;2023-08-12T13:35:09;2.28;;;1.98;;
13487;SDS011;6816;48.506;9.050;2023-08-12T13:38:11;1.92;;;1.60;;
13487;SDS011;6816;48.506;9.050;2023-08-12T13:41:11;2.58;;;1.90;;
13487;SDS011;6816;48.506;9.050;2023-08-12T13:44:12;1.67;;;1.50;;
13487;SDS011;6816;48.506;9.050;2023-08-12T13:47:12;1.73;;;1.58;;
13487;SDS011;6816;48.506;9.050;2023-08-12T13:50:13;1.77;;;1.50;;
13487;SDS011;6816;48.506;9.050;2023-08-12T13:53:14;3.15;;;1.90;;
13487;SDS011;6816;48.506;9.050;2023-08-12T13:56:15;2.05;;;1.55;;
13487;SDS011;6816;48.506;9.050;2023-08-12T13:59:16;2.90;;;1.65;;
13487;SDS011;6816;48.506;9.050;2023-08-12T14:02:16;1.70;;;1.60;;
13487;SDS011;6816;48.506;9.050;2023-08-12T14:05:17;2.75;;;1.80;;
13487;SDS011;6816;48.506;9.050;2023-08-12T14:08:17;1.70;;;1.60;;
13487;SDS011;6816;48.506;9.050;2023-08-12T14:11:18;1.73;;;1.55;;
13487;SDS011;6816;48.506;9.050;2023-08-12T14:14:20;2.17;;;1.50;;
13487;SDS011;6816;48.506;9.050;2023-08-12T14:17:21;2.05;;;1.58;;
13487;SDS011;6816;48.506;9.050;2023-08-12T14:20:23;2.20;;;2.00;;
13487;SDS011;6816;48.506;9.050;2023-08-12T14:23:23;2.85;;;1.80;;
13487;SDS011;6816;48.506;9.050;2023-08-12T14:26:24;2.13;;;1.92;;
13487;SDS011;6816;48.506;9.050;2023-08-12T14:29:25;1.70;;;1.60;;
13487;SDS011;6816;48.506;9.050;2023-08-12T14:32:25;2.25;;;1.83;;
13487;SDS011;6816;48.506;9.050;2023-08-12T14:35:26;2.10;;;1.83;;
13487;SDS011;6816;48.506;9.050;2023-08-12T14:38:27;2.38;;;2.10;;
13487;SDS011;6816;48.506;9.050;2023-08-12T14:41:27;1.90;;;1.80;;
13487;SDS011;6816;48.506;9.050;2023-08-12T14:44:28;2.63;;;2.30;;
13487;SDS011;6816;48.506;9.050;2023-08-12T14:47:28;2.00;;;1.90;;
13487;SDS011;6816;48.506;9.050;2023-08-12T14:50:30;1.95;;;1.80;;
13487;SDS011;6816;48.506;9.050;2023-08-12T14:53:30;2.15;;;1.83;;
13487;SDS011;6816;48.506;9.050;2023-08-12T14:56:31;2.10;;;1.90;;
13487;SDS011;6816;48.506;9.050;2023-08-12T14:59:32;2.15;;;1.98;;
13487;SDS011;6816;48.506;9.050;2023-08-12T15:02:32;2.30;;;2.10;;
13487;SDS011;6816;48.506;9.050;2023-08-12T15:05:33;1.98;;;1.77;;
13487;SDS011;6816;48.506;9.050;2023-08-12T15:08:33;3.28;;;2.30;;
13487;SDS011;6816;48.506;9.050;2023-08-12T15:11:34;1.88;;;1.77;;
13487;SDS011;6816;48.506;9.050;2023-08-12T15:14:34;3.25;;;2.28;;
13487;SDS011;6816;48.506;9.050;2023-08-12T15:17:35;2.60;;;2.33;;
13487;SDS011;6816;48.506;9.050;2023-08-12T15:20:36;2.15;;;2.00;;
13487;SDS011;6816;48.506;9.050;2023-08-12T15:23:36;2.20;;;2.00;;
13487;SDS011;6816;48.506;9.050;2023-08-12T15:26:37;2.33;;;2.15;;
13487;SDS011;6816;48.506;9.050;2023-08-12T15:29:38;2.22;;;2.03;;
13487;SDS011;6816;48.506;9.050;2023-08-12T15:32:38;3.10;;;2.50;;
13487;SDS011;6816;48.506;9.050;2023-08-12T15:35:39;2.50;;;2.30;;
13487;SDS011;6816;48.506;9.050;2023-08-12T15:38:39;3.88;;;2.20;;
13487;SDS011;6816;48.506;9.050;2023-08-12T15:41:41;3.05;;;2.50;;
13487;SDS011;6816;48.506;9.050;2023-08-12T15:44:42;2.33;;;2.13;;
13487;SDS011;6816;48.506;9.050;2023-08-12T15:47:43;4.05;;;2.40;;
13487;SDS011;6816;48.506;9.050;2023-08-12T15:50:44;4.13;;;2.50;;
13487;SDS011;6816;48.506;9.050;2023-08-12T15:53:44;2.78;;;2.58;;
13487;SDS011;6816;48.506;9.050;2023-08-12T15:56:45;2.50;;;2.30;;
13487;SDS011;6816;48.506;9.050;2023-08-12T15:59:46;3.83;;;3.00;;
13487;SDS011;6816;48.506;9.050;2023-08-12T16:02:46;2.40;;;2.28;;
13487;SDS011;6816;48.506;9.050;2023-08-12T16:05:47;2.70;;;2.50;;
13487;SDS011;6816;48.506;9.050;2023-08-12T16:08:51;4.35;;;3.05;;
13487;SDS011;6816;48.506;9.050;2023-08-12T16:11:52;4.00;;;2.70;;
13487;SDS011;6816;48.506;9.050;2023-08-12T16:14:54;2.97;;;2.70;;
13487;SDS011;6816;48.506;9.050;2023-08-12T16:17:54;3.13;;;2.60;;
13487;SDS011;6816;48.506;9.050;2023-08-12T16:20:55;3.78;;;3.42;;
13487;SDS011;6816;48.506;9.050;2023-08-12T16:23:56;3.35;;;3.05;;
13487;SDS011;6816;48.506;9.050;2023-08-12T16:26:56;3.45;;;2.85;;
13487;SDS011;6816;48.506;9.050;2023-08-12T16:29:59;3.70;;;3.17;;
13487;SDS011;6816;48.506;9.050;2023-08-12T16:33:29;9.50;;;7.65;;
13487;SDS011;6816;48.506;9.050;2023-08-12T16:36:29;4.80;;;4.30;;
13487;SDS011;6816;48.506;9.050;2023-08-12T16:39:30;5.20;;;3.65;;
13487;SDS011;6816;48.506;9.050;2023-08-12T16:42:30;4.57;;;2.53;;
13487;SDS011;6816;48.506;9.050;2023-08-12T16:45:31;2.22;;;2.03;;
13487;SDS011;6816;48.506;9.050;2023-08-12T16:48:33;2.97;;;2.08;;
13487;SDS011;6816;48.506;9.050;2023-08-12T16:51:59;3.03;;;1.98;;
13487;SDS011;6816;48.506;9.050;2023-08-12T16:54:59;2.80;;;2.00;;
13487;SDS011;6816;48.506;9.050;2023-08-12T16:58:01;2.35;;;1.70;;
13487;SDS011;6816;48.506;9.050;2023-08-12T17:01:07;2.08;;;1.88;;
13487;SDS011;6816;48.506;9.050;2023-08-12T17:07:33;2.60;;;2.35;;
13487;SDS011;6816;48.506;9.050;2023-08-12T17:10:37;2.85;;;2.30;;
13487;SDS011;6816;48.506;9.050;2023-08-12T17:13:38;3.38;;;2.67;;
13487;SDS011;6816;48.506;9.050;2023-08-12T17:16:39;3.28;;;2.58;;
13487;SDS011;6816;48.506;9.050;2023-08-12T17:19:39;4.22;;;2.10;;
13487;SDS011;6816;48.506;9.050;2023-08-12T17:22:40;4.07;;;2.30;;
13487;SDS011;6816;48.506;9.050;2023-08-12T17:25:41;3.17;;;2.30;;
13487;SDS011;6816;48.506;9.050;2023-08-12T17:28:41;3.03;;;2.10;;
13487;SDS011;6816;48.506;9.050;2023-08-12T17:31:42;3.70;;;2.40;;
13487;SDS011;6816;48.506;9.050;2023-08-12T17:34:43;2.45;;;1.98;;
13487;SDS011;6816;48.506;9.050;2023-08-12T17:37:45;2.72;;;2.20;;
13487;SDS011;6816;48.506;9.050;2023-08-12T17:40:58;3.03;;;2.40;;
13487;SDS011;6816;48.506;9.050;2023-08-12T17:44:05;3.22;;;2.20;;
13487;SDS011;6816;48.506;9.050;2023-08-12T17:47:14;2.92;;;2.35;;
13487;SDS011;6816;48.506;9.050;2023-08-12T17:50:19;2.72;;;2.53;;
13487;SDS011;6816;48.506;9.050;2023-08-12T17:53:21;3.10;;;2.70;;
13487;SDS011;6816;48.506;9.050;2023-08-12T17:56:25;5.20;;;2.85;;
13487;SDS011;6816;48.506;9.050;2023-08-12T17:59:27;3.22;;;2.90;;
13487;SDS011;6816;48.506;9.050;2023-08-12T18:02:29;2.33;;;2.13;;
13487;SDS011;6816;48.506;9.050;2023-08-12T18:05:31;2.13;;;1.95;;
13487;SDS011;6816;48.506;9.050;2023-08-12T18:08:32;7.95;;;2.20;;
13487;SDS011;6816;48.506;9.050;2023-08-12T18:11:32;2.10;;;1.90;;
13487;SDS011;6816;48.506;9.050;2023-08-12T18:14:33;2.42;;;1.70;;
13487;SDS011;6816;48.506;9.050;2023-08-12T18:17:34;1.73;;;1.63;;
13487;SDS011;6816;48.506;9.050;2023-08-12T18:20:34;1.67;;;1.58;;
13487;SDS011;6816;48.506;9.050;2023-08-12T18:23:35;2.35;;;1.60;;
13487;SDS011;6816;48.506;9.050;2023-08-12T18:26:36;2.13;;;1.88;;
13487;SDS011;6816;48.506;9.050;2023-08-12T18:29:36;2.30;;;1.65;;
13487;SDS011;6816;48.506;9.050;2023-08-12T18:32:37;2.17;;;1.40;;
13487;SDS011;6816;48.506;9.050;2023-08-12T18:35:39;2.10;;;1.75;;
13487;SDS011;6816;48.506;9.050;2023-08-12T18:38:39;3.05;;;1.60;;
13487;SDS011;6816;48.506;9.050;2023-08-12T18:41:40;1.67;;;1.42;;